Terminal Aerodrome Forecast
Issued by NWS Portland, OR

Current Version | Previous Version | Text Only | Print | Product List | Glossary On
Versions: 1 2 3 4 5 6 7 8 9 10 11 12 13 14 15 16 17 18 19 20 21 22 23 24 25 26 27 28 29 30 31 32 33 34 35 36 37 38 39 40 41 42 43 44 45 46 47 48 49 50
000
FTUS46 KPQR 241139
TAFPDX
TAF
KPDX 241139Z 2412/2512 20010KT P6SM SCT035 BKN050 BKN070
      TEMPO 2412/2416 -SHRA BKN035 OVC050
     FM241900 25009KT P6SM SCT050 BKN070
     FM250000 32008KT P6SM SCT060
     FM250600 29002KT P6SM SKC=

USA.gov is the U.S. government's official web portal to all federal, state and local government web resources and services.